Rice, Washington
Current Conditions -  °F | °C
As of 3:53 PM on Friday 28 Nov 2014 (Local Time) from KDEW Reporting Station
Overcast Overcast  
Wind Chill: 42°   Ceiling: 4100
Heat Index: 49°   Visibility: 10mi
Dew Point: 42°   Wind: 21mph
Humidity: 77%   Direction: 200°SSW
Pressure: 29.3"   Gusts: 28mph
Location:  48.43°N, 118.17°W
Report Text: KDEW 282353Z AUTO 20018G24KT 10SM OVC041 09/06 A2930 RMK AO2 RAE41 SLP922 P0007 60007 T00940056 10122 20089 57028
Loading
Personal Weather Stations






























Interactive Weather Map New forecast layout! Learn more

10-Day Weather Forecast

Advertisements
Track Severe Weather on mobile